Aviation Digital Data Service (ADDS)

Output produced by METARs form (1639 UTC 24 July 2016)
found at http://aviationweather.gov/adds/metars/
 
KINT 241130Z 2412/2512 21003KT P6SM SCT250 
     FM241600 18005KT P6SM SCT060 
     FM250200 20004KT P6SM FEW250